Aegean Navigator — SWBI — position and weather

sailwx.info

Track history (hours):
 
Tides and Currents Weather Stations Pressure Air Temp Water Temp Dewpoint Dewpoint Depression Visibility Wind Speed Wind Dir Waves Ship Positions

Aegean Navigator

Last reported at 2015-Mar-19 07:11 UTC. Time now 2015-Mar-28 12:21 UTC.
Position N 09°31' W 017°43'.
Warning: this ship's position is 9 days out of date.

Length 274 m; draft 9 m.

Type: Tanker. MMSI: 240634000.

Date/timePositionNaut miles runAvg speedWind from/ knotsBaromVisibWave heightAir tempDewpointWater temp
2015-Mar-19 07:11N 09°31' W 017°43'610.0
2015-Mar-19 06:33N 09°36' W 017°46'3210.3
2015-Mar-19 03:27N 10°01' W 018°06'1010.3
2015-Mar-19 02:26N 10°10' W 018°12'  
2015-Mar-14 14:05N 27°41' W 013°56'1711.2
2015-Mar-14 12:33N 27°56' W 013°47'1111.3
2015-Mar-14 11:33N 28°06' W 013°41'1211.2
2015-Mar-14 10:31N 28°16' W 013°35'1111.0
2015-Mar-14 09:30N 28°26' W 013°29'33910.9
2015-Mar-13 02:24N 33°28' W 010°31'3211.0
2015-Mar-12 23:30N 33°57' W 010°13'1110.8
2015-Mar-12 22:30N 34°06' W 010°07'119 6.0
2015-Mar-12 02:30N 35°55' W 009°06'1 1.5
2015-Mar-12 01:33N 35°56' W 009°06'3 1.6
2015-Mar-11 23:32N 35°59' W 009°06'3 1.4
2015-Mar-11 21:23N 36°02' W 009°06'1 1.3
2015-Mar-11 20:27N 36°04' W 009°06'1 1.2
2015-Mar-11 19:33N 36°05' W 009°05'1 1.3
2015-Mar-11 18:32N 36°06' W 009°05'1 1.2
2015-Mar-11 17:32N 36°07' W 009°05'2 1.1
2015-Mar-11 15:24N 36°09' W 009°05'1 1.1
2015-Mar-11 14:33N 36°10' W 009°05'1 1.1
2015-Mar-11 13:33N 36°12' W 009°05'1 1.2
2015-Mar-11 12:27N 36°13' W 009°05'1 1.2
2015-Mar-11 11:22N 36°14' W 009°05'2 1.1
2015-Mar-11 09:32N 36°16' W 009°05'1 1.2
2015-Mar-11 08:26N 36°17' W 009°05'6 7.1
2015-Mar-11 07:33N 36°24' W 009°04'7 6.8
2015-Mar-11 06:33N 36°30' W 009°07'6 6.1
2015-Mar-11 05:33N 36°32' W 009°14'6 5.8
2015-Mar-11 04:33N 36°36' W 009°19'9 9.3
2015-Mar-11 03:33N 36°42' W 009°27'1010.0
2015-Mar-11 02:33N 36°51' W 009°34'1110.6
2015-Mar-11 01:33N 37°01' W 009°37'1110.9
2015-Mar-11 00:33N 37°12' W 009°40'1111.0
2015-Mar-10 23:33N 37°22' W 009°43'1111.2
2015-Mar-10 22:33N 37°33' W 009°46'1110.9
2015-Mar-10 21:33N 37°44' W 009°50'1110.8
2015-Mar-10 20:33N 37°54' W 009°53'1110.7
2015-Mar-10 19:33N 38°05' W 009°56'1110.9
2015-Mar-10 18:33N 38°16' W 009°59'1111.1
2015-Mar-10 17:33N 38°26' W 010°02'1110.5
2015-Mar-10 16:33N 38°37' W 010°05'1010.3
2015-Mar-10 15:34N 38°47' W 010°06'1010.4
2015-Mar-10 14:33N 38°57' W 010°06'1110.6
2015-Mar-10 13:33N 39°08' W 010°06'1210.7
2015-Mar-10 12:27N 39°20' W 010°07'1010.7
2015-Mar-10 11:33N 39°29' W 010°07'2310.6
2015-Mar-10 09:24N 39°52' W 010°06'910.7
2015-Mar-10 08:32N 40°01' W 010°07'1110.9
2015-Mar-10 07:33N 40°12' W 010°07'  
Track history (hours):
 
Tides and Currents Weather Stations Pressure Air Temp Water Temp Dewpoint Dewpoint Depression Visibility Wind Speed Wind Dir Waves Ship Positions

Aegean Navigator

Last reported at 2015-Mar-19 07:11 UTC. Time now 2015-Mar-28 12:21 UTC.
Position N 09°31' W 017°43'.
Warning: this ship's position is 9 days out of date.

Length 274 m; draft 9 m.

Type: Tanker. MMSI: 240634000.

Date/timePositionNaut miles runAvg speedWind from/ knotsBaromVisibWave heightAir tempDewpointWater temp
2015-Mar-19 07:11N 09°31' W 017°43'610.0
2015-Mar-19 06:33N 09°36' W 017°46'3210.3
2015-Mar-19 03:27N 10°01' W 018°06'1010.3
2015-Mar-19 02:26N 10°10' W 018°12'  
2015-Mar-14 14:05N 27°41' W 013°56'1711.2
2015-Mar-14 12:33N 27°56' W 013°47'1111.3
2015-Mar-14 11:33N 28°06' W 013°41'1211.2
2015-Mar-14 10:31N 28°16' W 013°35'1111.0
2015-Mar-14 09:30N 28°26' W 013°29'33910.9
2015-Mar-13 02:24N 33°28' W 010°31'3211.0
2015-Mar-12 23:30N 33°57' W 010°13'1110.8
2015-Mar-12 22:30N 34°06' W 010°07'119 6.0
2015-Mar-12 02:30N 35°55' W 009°06'1 1.5
2015-Mar-12 01:33N 35°56' W 009°06'3 1.6
2015-Mar-11 23:32N 35°59' W 009°06'3 1.4
2015-Mar-11 21:23N 36°02' W 009°06'1 1.3
2015-Mar-11 20:27N 36°04' W 009°06'1 1.2
2015-Mar-11 19:33N 36°05' W 009°05'1 1.3
2015-Mar-11 18:32N 36°06' W 009°05'1 1.2
2015-Mar-11 17:32N 36°07' W 009°05'2 1.1
2015-Mar-11 15:24N 36°09' W 009°05'1 1.1
2015-Mar-11 14:33N 36°10' W 009°05'1 1.1
2015-Mar-11 13:33N 36°12' W 009°05'1 1.2
2015-Mar-11 12:27N 36°13' W 009°05'1 1.2
2015-Mar-11 11:22N 36°14' W 009°05'2 1.1
2015-Mar-11 09:32N 36°16' W 009°05'1 1.2
2015-Mar-11 08:26N 36°17' W 009°05'6 7.1
2015-Mar-11 07:33N 36°24' W 009°04'7 6.8
2015-Mar-11 06:33N 36°30' W 009°07'6 6.1
2015-Mar-11 05:33N 36°32' W 009°14'6 5.8
2015-Mar-11 04:33N 36°36' W 009°19'9 9.3
2015-Mar-11 03:33N 36°42' W 009°27'1010.0
2015-Mar-11 02:33N 36°51' W 009°34'1110.6
2015-Mar-11 01:33N 37°01' W 009°37'1110.9
2015-Mar-11 00:33N 37°12' W 009°40'1111.0
2015-Mar-10 23:33N 37°22' W 009°43'1111.2
2015-Mar-10 22:33N 37°33' W 009°46'1110.9
2015-Mar-10 21:33N 37°44' W 009°50'1110.8
2015-Mar-10 20:33N 37°54' W 009°53'1110.7
2015-Mar-10 19:33N 38°05' W 009°56'1110.9
2015-Mar-10 18:33N 38°16' W 009°59'1111.1
2015-Mar-10 17:33N 38°26' W 010°02'1110.5
2015-Mar-10 16:33N 38°37' W 010°05'1010.3
2015-Mar-10 15:34N 38°47' W 010°06'1010.4
2015-Mar-10 14:33N 38°57' W 010°06'1110.6
2015-Mar-10 13:33N 39°08' W 010°06'1210.7
2015-Mar-10 12:27N 39°20' W 010°07'1010.7
2015-Mar-10 11:33N 39°29' W 010°07'2310.6
2015-Mar-10 09:24N 39°52' W 010°06'910.7
2015-Mar-10 08:32N 40°01' W 010°07'1110.9
2015-Mar-10 07:33N 40°12' W 010°07'  

Dump ship's entire track history